Time;durP1;ratioP1;P1;durP2;ratioP2;P2;SDS_P1;SDS_P2;PMS_P1;PMS_P2;Temp;Humidity;BMP_temperature;BMP_pressure;BME280_temperature;BME280_humidity;BME280_pressure;Samples;Min_cycle;Max_cycle;Signal;HPM_P1;HPM_P2
2021/05/05 00:00:38;;;;;;;8.75;2.85;;;7.60;74.20;;;;;;5058965;28;20032;-74
2021/05/05 00:03:04;;;;;;;7.80;3.15;;;7.50;74.40;;;;;;5055436;28;20450;-83
2021/05/05 00:05:30;;;;;;;7.03;3.13;;;7.50;74.60;;;;;;5058630;28;20391;-74
2021/05/05 00:07:56;;;;;;;7.40;3.13;;;7.40;74.90;;;;;;5063320;28;20034;-74
2021/05/05 00:10:22;;;;;;;7.30;3.65;;;7.40;75.20;;;;;;5060997;28;20533;-74
2021/05/05 00:12:48;;;;;;;11.25;8.55;;;7.40;75.30;;;;;;5060111;28;20130;-73
2021/05/05 00:15:20;;;;;;;14.40;9.82;;;7.40;75.50;;;;;;5060588;28;20527;-80
2021/05/05 00:17:46;;;;;;;11.38;9.88;;;7.40;75.70;;;;;;5056806;28;20032;-73
2021/05/05 00:20:13;;;;;;;11.13;8.25;;;7.40;75.70;;;;;;5058550;28;20570;-74
2021/05/05 00:22:39;;;;;;;11.77;6.78;;;7.40;75.80;;;;;;5059570;28;20032;-76
2021/05/05 00:25:07;;;;;;;11.27;6.35;;;7.40;75.80;;;;;;5060276;28;20039;-75
2021/05/05 00:27:32;;;;;;;10.25;5.55;;;7.40;75.80;;;;;;5056705;28;20074;-73
2021/05/05 00:29:58;;;;;;;9.57;4.85;;;7.40;75.90;;;;;;5062674;28;20040;-81
2021/05/05 00:32:24;;;;;;;9.82;4.60;;;7.30;76.00;;;;;;5064502;28;20040;-73
2021/05/05 00:34:50;;;;;;;10.48;5.10;;;7.20;76.30;;;;;;5063159;28;20051;-75
2021/05/05 00:37:16;;;;;;;10.13;4.97;;;7.20;76.50;;;;;;5055524;28;20041;-78
2021/05/05 00:39:42;;;;;;;8.73;4.78;;;7.20;76.50;;;;;;5064275;28;20062;-73
2021/05/05 00:42:07;;;;;;;9.68;4.80;;;7.20;76.60;;;;;;5059617;28;20058;-76
2021/05/05 00:44:33;;;;;;;11.68;4.40;;;7.20;76.70;;;;;;5061240;28;20028;-73
2021/05/05 00:47:00;;;;;;;7.35;3.95;;;7.20;76.70;;;;;;5060739;28;20041;-75
2021/05/05 00:49:26;;;;;;;10.07;4.68;;;7.20;76.80;;;;;;5060687;28;20025;-78
2021/05/05 00:51:52;;;;;;;9.90;4.85;;;7.20;76.80;;;;;;5064823;28;20036;-75
2021/05/05 00:54:18;;;;;;;10.30;4.80;;;7.30;76.70;;;;;;5062825;28;20029;-77
2021/05/05 00:56:44;;;;;;;10.55;4.75;;;7.20;76.60;;;;;;5065318;28;20037;-74
2021/05/05 00:59:10;;;;;;;7.70;4.30;;;7.10;76.60;;;;;;5061915;28;20442;-75
2021/05/05 01:01:36;;;;;;;10.32;4.68;;;7.10;76.80;;;;;;5055344;28;20067;-75
2021/05/05 01:04:01;;;;;;;11.77;5.07;;;7.10;77.00;;;;;;5056446;28;20037;-74
2021/05/05 01:06:27;;;;;;;9.02;4.53;;;7.10;77.00;;;;;;5056403;28;20387;-73
2021/05/05 01:08:54;;;;;;;10.75;5.05;;;7.10;77.00;;;;;;5057951;28;20045;-81
2021/05/05 01:11:19;;;;;;;11.18;5.18;;;7.10;77.00;;;;;;5060231;28;20036;-74
2021/05/05 01:13:45;;;;;;;9.68;4.70;;;7.10;76.90;;;;;;5052667;28;20043;-73
2021/05/05 01:16:15;;;;;;;11.30;4.90;;;7.10;76.80;;;;;;5060379;28;20032;-74
2021/05/05 01:18:42;;;;;;;16.20;5.35;;;7.10;76.80;;;;;;5062637;28;20040;-74
2021/05/05 01:21:08;;;;;;;10.45;5.22;;;7.10;77.10;;;;;;5060977;28;20036;-72
2021/05/05 01:23:34;;;;;;;12.68;6.68;;;7.00;77.10;;;;;;5050004;28;20033;-74
2021/05/05 01:25:59;;;;;;;9.45;5.47;;;7.00;77.20;;;;;;5043685;28;20487;-74
2021/05/05 01:28:25;;;;;;;11.30;5.45;;;6.90;77.30;;;;;;5055434;28;20036;-81
2021/05/05 01:30:52;;;;;;;11.00;5.65;;;6.90;77.00;;;;;;5053986;28;20040;-73
2021/05/05 01:33:18;;;;;;;11.57;6.07;;;6.80;77.30;;;;;;5057487;28;20483;-75
2021/05/05 01:35:47;;;;;;;9.23;6.13;;;6.80;77.70;;;;;;5055691;28;20040;-80
2021/05/05 01:38:13;;;;;;;9.52;5.82;;;6.80;77.70;;;;;;5060291;28;20055;-74
2021/05/05 01:40:40;;;;;;;10.25;6.32;;;6.70;77.90;;;;;;5043441;28;20030;-74
2021/05/05 01:43:06;;;;;;;12.77;6.80;;;6.70;77.80;;;;;;5042691;28;20052;-76
2021/05/05 01:45:33;;;;;;;13.52;6.28;;;6.70;77.90;;;;;;5041755;28;20246;-77
2021/05/05 01:48:02;;;;;;;12.13;7.18;;;6.70;78.10;;;;;;5043260;28;20476;-80
2021/05/05 01:50:27;;;;;;;13.60;6.60;;;6.60;78.10;;;;;;5063081;28;20037;-77
2021/05/05 01:52:53;;;;;;;12.10;6.18;;;6.60;78.20;;;;;;5043375;28;20355;-79
2021/05/05 01:55:19;;;;;;;10.73;5.72;;;6.60;78.20;;;;;;5046272;28;20047;-72
2021/05/05 01:57:46;;;;;;;12.00;5.88;;;6.50;78.30;;;;;;5061914;28;20028;-73
2021/05/05 02:00:24;;;;;;;11.70;6.22;;;6.50;78.20;;;;;;5063078;28;20036;-72
2021/05/05 02:02:50;;;;;;;16.58;5.63;;;6.60;78.00;;;;;;5058981;28;20033;-74
2021/05/05 02:05:16;;;;;;;11.02;4.97;;;6.60;78.10;;;;;;5060180;28;20499;-80
2021/05/05 02:07:42;;;;;;;11.32;5.50;;;6.50;77.70;;;;;;5062340;28;20636;-73
2021/05/05 02:10:13;;;;;;;9.48;5.03;;;6.40;78.10;;;;;;5060737;28;20020;-74
2021/05/05 02:12:38;;;;;;;14.10;5.68;;;6.40;78.00;;;;;;5041650;28;20334;-77
2021/05/05 02:15:06;;;;;;;9.90;5.35;;;6.30;78.20;;;;;;5045516;28;20040;-74
2021/05/05 02:17:32;;;;;;;12.10;5.13;;;6.30;78.20;;;;;;5045133;28;20033;-75
2021/05/05 02:19:57;;;;;;;11.52;5.13;;;6.20;78.10;;;;;;5039730;28;20095;-80
2021/05/05 02:22:23;;;;;;;10.30;5.95;;;6.20;78.20;;;;;;5041096;28;20033;-73
2021/05/05 02:24:49;;;;;;;9.45;6.63;;;6.20;78.40;;;;;;5038461;28;20033;-73
2021/05/05 02:27:15;;;;;;;13.00;6.93;;;6.20;78.30;;;;;;5040047;28;20044;-73
2021/05/05 02:29:41;;;;;;;13.35;7.05;;;6.20;78.40;;;;;;5041954;28;20075;-74
2021/05/05 02:32:15;;;;;;;10.95;6.32;;;6.20;78.30;;;;;;5041596;28;20066;-81
2021/05/05 02:34:41;;;;;;;12.65;5.72;;;6.10;78.50;;;;;;5045567;28;20036;-81
2021/05/05 02:37:09;;;;;;;12.63;5.90;;;6.10;78.60;;;;;;5059666;28;20047;-76
2021/05/05 02:39:38;;;;;;;12.38;5.47;;;6.20;78.50;;;;;;5047476;28;20515;-74
2021/05/05 02:42:05;;;;;;;10.57;5.43;;;6.20;78.50;;;;;;5038012;28;20120;-82
2021/05/05 02:44:31;;;;;;;13.70;5.25;;;6.30;78.60;;;;;;5046923;28;20044;-72
2021/05/05 02:46:57;;;;;;;11.48;4.68;;;6.30;78.20;;;;;;5043631;28;20037;-75
2021/05/05 02:49:22;;;;;;;11.48;4.95;;;6.30;78.20;;;;;;5041617;28;20042;-78
2021/05/05 02:51:48;;;;;;;11.43;4.95;;;6.40;78.10;;;;;;5042420;28;20033;-73
2021/05/05 02:54:14;;;;;;;14.45;5.60;;;6.40;78.20;;;;;;5047064;28;20044;-78
2021/05/05 02:56:39;;;;;;;14.15;5.50;;;6.40;78.10;;;;;;5048191;28;20044;-75
2021/05/05 02:59:05;;;;;;;11.07;5.43;;;6.50;78.20;;;;;;5051546;28;20403;-72
2021/05/05 03:01:31;;;;;;;12.90;4.82;;;6.50;78.10;;;;;;5061069;28;20054;-78
2021/05/05 03:03:56;;;;;;;10.00;5.00;;;6.40;78.20;;;;;;5058952;28;20136;-75
2021/05/05 03:06:22;;;;;;;11.50;5.20;;;6.50;78.10;;;;;;5036847;28;20041;-73
2021/05/05 03:08:47;;;;;;;14.82;5.40;;;6.40;78.10;;;;;;5048294;28;20029;-75
2021/05/05 03:11:13;;;;;;;9.30;4.55;;;6.40;78.10;;;;;;5043743;28;20033;-77
2021/05/05 03:13:39;;;;;;;9.95;4.57;;;6.50;78.10;;;;;;5044464;28;20499;-82
2021/05/05 03:16:05;;;;;;;9.55;4.80;;;6.40;78.20;;;;;;5042437;28;20448;-77
2021/05/05 03:18:31;;;;;;;11.50;4.95;;;6.40;77.80;;;;;;5045347;28;20032;-73
2021/05/05 03:20:58;;;;;;;10.05;4.50;;;6.40;78.00;;;;;;5063641;28;20036;-72
2021/05/05 03:23:24;;;;;;;10.13;5.10;;;6.40;78.00;;;;;;5061336;28;20432;-74
2021/05/05 03:25:50;;;;;;;9.38;4.93;;;6.30;77.80;;;;;;5071936;28;20094;-74
2021/05/05 03:28:16;;;;;;;10.30;5.22;;;6.40;77.90;;;;;;5052567;28;20057;-77
2021/05/05 03:30:41;;;;;;;9.75;4.85;;;6.40;77.90;;;;;;5057855;28;20047;-74
2021/05/05 03:33:07;;;;;;;8.57;4.55;;;6.50;77.90;;;;;;5043557;28;20412;-82
2021/05/05 03:35:33;;;;;;;9.45;4.60;;;6.40;78.00;;;;;;5033421;28;20049;-74
2021/05/05 03:37:58;;;;;;;10.60;4.85;;;6.50;77.90;;;;;;5038830;28;20040;-74
2021/05/05 03:40:25;;;;;;;12.48;5.80;;;6.50;77.70;;;;;;5044840;28;20076;-73
2021/05/05 03:42:50;;;;;;;10.93;5.45;;;6.50;78.00;;;;;;5039999;28;20033;-74
2021/05/05 03:45:17;;;;;;;10.65;5.47;;;6.40;78.20;;;;;;5040029;28;20408;-82
2021/05/05 03:47:42;;;;;;;13.90;5.15;;;6.50;78.00;;;;;;5046535;28;20036;-74
2021/05/05 03:50:09;;;;;;;13.07;5.93;;;6.50;78.40;;;;;;5044252;28;20029;-72
2021/05/05 03:52:35;;;;;;;9.27;5.00;;;6.50;78.20;;;;;;5045513;28;20041;-79
2021/05/05 03:55:01;;;;;;;14.80;5.75;;;6.50;78.30;;;;;;5039871;28;20045;-75
2021/05/05 03:57:26;;;;;;;8.82;5.30;;;6.50;78.30;;;;;;5034783;28;20029;-74
2021/05/05 03:59:52;;;;;;;12.25;5.80;;;6.50;78.40;;;;;;5039067;28;20048;-75
2021/05/05 04:02:18;;;;;;;10.90;5.85;;;6.50;78.40;;;;;;5047449;28;20051;-80
2021/05/05 04:04:43;;;;;;;13.48;6.78;;;6.50;78.50;;;;;;5046154;28;20044;-78
2021/05/05 04:07:09;;;;;;;14.73;5.80;;;6.40;78.80;;;;;;5046751;28;21164;-79
2021/05/05 04:09:35;;;;;;;9.75;5.72;;;6.30;79.10;;;;;;5055977;28;20091;-74
2021/05/05 04:12:04;;;;;;;8.88;5.20;;;6.30;79.20;;;;;;5045693;28;20116;-80
2021/05/05 04:14:30;;;;;;;10.38;6.03;;;6.30;79.30;;;;;;5043673;28;20429;-74
2021/05/05 04:16:56;;;;;;;10.07;5.65;;;6.30;79.60;;;;;;5036814;28;20033;-79
2021/05/05 04:19:22;;;;;;;11.15;6.25;;;6.30;79.70;;;;;;5035363;28;20056;-78
2021/05/05 04:21:49;;;;;;;12.18;6.65;;;6.30;79.70;;;;;;5043565;28;20029;-74
2021/05/05 04:24:15;;;;;;;12.77;6.22;;;6.30;79.70;;;;;;5032454;28;20428;-75
2021/05/05 04:26:41;;;;;;;13.55;6.05;;;6.20;79.80;;;;;;5042328;28;20033;-75
2021/05/05 04:29:07;;;;;;;10.60;5.53;;;6.20;80.00;;;;;;5034266;28;20044;-74
2021/05/05 04:31:32;;;;;;;12.50;6.65;;;6.20;80.00;;;;;;5031009;28;20041;-81
2021/05/05 04:33:58;;;;;;;14.25;6.43;;;6.20;79.90;;;;;;5036118;28;20045;-74
2021/05/05 04:36:24;;;;;;;10.77;5.70;;;6.30;80.00;;;;;;5034561;28;20059;-75
2021/05/05 04:38:49;;;;;;;15.63;6.78;;;6.30;79.80;;;;;;5051884;28;20079;-75
2021/05/05 04:41:15;;;;;;;10.80;5.38;;;6.50;79.70;;;;;;5039228;28;20499;-75
2021/05/05 04:43:41;;;;;;;12.05;6.65;;;6.60;79.40;;;;;;5035026;28;20048;-77
2021/05/05 04:46:07;;;;;;;11.27;6.13;;;6.80;78.90;;;;;;5037697;28;20492;-80
2021/05/05 04:48:33;;;;;;;12.57;6.45;;;6.80;78.50;;;;;;5039425;28;20037;-73
2021/05/05 04:50:59;;;;;;;11.00;6.20;;;6.90;78.50;;;;;;5029111;28;20035;-77
2021/05/05 04:53:25;;;;;;;10.02;6.43;;;6.80;78.40;;;;;;5033359;28;20029;-72
2021/05/05 04:55:51;;;;;;;12.88;7.82;;;6.80;78.50;;;;;;5032650;28;20184;-73
2021/05/05 04:58:18;;;;;;;18.45;11.93;;;6.80;78.60;;;;;;5033832;28;20367;-73
2021/05/05 05:00:43;;;;;;;15.10;11.90;;;6.80;78.50;;;;;;5038869;28;20417;-73
2021/05/05 05:03:09;;;;;;;13.85;8.38;;;6.90;78.40;;;;;;5033185;28;20060;-82
2021/05/05 05:05:34;;;;;;;13.38;7.78;;;7.10;78.10;;;;;;5037933;28;20068;-72
2021/05/05 05:08:00;;;;;;;10.70;6.68;;;7.10;78.20;;;;;;5033242;28;20394;-72
2021/05/05 05:10:26;;;;;;;10.75;6.30;;;7.10;78.00;;;;;;5038484;28;20045;-75
2021/05/05 05:12:51;;;;;;;10.98;6.45;;;7.00;78.00;;;;;;5033915;28;20489;-74
2021/05/05 05:15:17;;;;;;;12.48;6.25;;;7.00;78.20;;;;;;5037232;28;20072;-75
2021/05/05 05:17:43;;;;;;;14.10;6.80;;;7.00;78.30;;;;;;5033501;28;20063;-74
2021/05/05 05:20:09;;;;;;;12.07;6.78;;;7.20;77.60;;;;;;5037588;28;20108;-73
2021/05/05 05:22:36;;;;;;;13.50;6.25;;;7.30;77.30;;;;;;5039347;28;20086;-83
2021/05/05 05:25:04;;;;;;;11.68;6.03;;;7.50;77.00;;;;;;5052131;28;20038;-72
2021/05/05 05:27:30;;;;;;;14.27;5.93;;;7.50;76.30;;;;;;5032631;28;20037;-78
2021/05/05 05:29:55;;;;;;;9.73;5.40;;;7.50;76.50;;;;;;5042784;28;20049;-80
2021/05/05 05:32:21;;;;;;;11.80;5.30;;;7.50;76.30;;;;;;5055802;28;20528;-75
2021/05/05 05:34:47;;;;;;;12.52;5.85;;;7.50;76.30;;;;;;5058944;28;20422;-72
2021/05/05 05:37:12;;;;;;;8.68;6.22;;;7.50;76.30;;;;;;5039562;28;20041;-69
2021/05/05 05:39:38;;;;;;;12.18;5.75;;;7.50;76.40;;;;;;5052451;28;20121;-69
2021/05/05 05:42:04;;;;;;;11.80;5.65;;;7.60;76.10;;;;;;5057768;28;20033;-72
2021/05/05 05:44:30;;;;;;;10.50;5.85;;;7.70;76.10;;;;;;5052056;28;20033;-68
2021/05/05 05:46:55;;;;;;;11.60;5.35;;;7.70;75.60;;;;;;5060056;28;20435;-71
2021/05/05 05:49:21;;;;;;;9.93;5.60;;;7.70;75.30;;;;;;5050709;28;20061;-70
2021/05/05 05:51:46;;;;;;;10.55;5.80;;;7.50;76.20;;;;;;5060259;28;20539;-73
2021/05/05 05:54:12;;;;;;;9.68;5.50;;;7.60;75.90;;;;;;5047381;28;20047;-73
2021/05/05 05:56:38;;;;;;;12.68;6.07;;;7.50;75.90;;;;;;5040001;28;20036;-69
2021/05/05 05:59:03;;;;;;;11.30;6.40;;;7.40;76.70;;;;;;5042586;28;20033;-71
2021/05/05 06:01:29;;;;;;;9.23;5.70;;;7.30;77.40;;;;;;5037420;28;20037;-73
2021/05/05 06:03:55;;;;;;;16.23;6.78;;;7.20;77.70;;;;;;5045064;28;20063;-69
2021/05/05 06:06:20;;;;;;;11.25;6.70;;;7.10;78.40;;;;;;5032645;28;20119;-73
2021/05/05 06:08:46;;;;;;;13.15;5.97;;;7.00;79.80;;;;;;5033953;28;20045;-69
2021/05/05 06:11:12;;;;;;;11.02;5.22;;;6.90;81.00;;;;;;5041868;28;20200;-71
2021/05/05 06:13:37;;;;;;;11.88;5.32;;;6.60;80.70;;;;;;5033775;28;20048;-73
2021/05/05 06:16:03;;;;;;;10.52;4.30;;;6.60;81.50;;;;;;5038709;28;20099;-70
2021/05/05 06:18:29;;;;;;;8.40;3.90;;;6.60;81.50;;;;;;5061510;28;20036;-71
2021/05/05 06:20:55;;;;;;;12.10;4.78;;;6.70;81.40;;;;;;5049515;28;20079;-70
2021/05/05 06:23:21;;;;;;;12.38;4.18;;;6.60;81.70;;;;;;5062737;28;20090;-70
2021/05/05 06:25:46;;;;;;;13.02;4.70;;;6.60;81.70;;;;;;5053967;28;20032;-73
2021/05/05 06:28:12;;;;;;;11.38;4.35;;;6.80;81.90;;;;;;5041897;28;20501;-70
2021/05/05 06:30:38;;;;;;;12.00;4.22;;;6.80;81.60;;;;;;5039910;28;20076;-69
2021/05/05 06:33:03;;;;;;;9.60;4.50;;;6.90;81.70;;;;;;5037464;28;20047;-74
2021/05/05 06:35:29;;;;;;;11.30;4.15;;;7.00;81.80;;;;;;5049295;28;20533;-69
2021/05/05 06:37:55;;;;;;;10.95;4.07;;;7.00;81.40;;;;;;5054235;28;20017;-70
2021/05/05 06:40:21;;;;;;;13.40;4.10;;;7.10;81.70;;;;;;5037587;28;22642;-71
2021/05/05 06:42:47;;;;;;;12.82;4.28;;;7.20;81.40;;;;;;5044493;28;20024;-70
2021/05/05 06:45:13;;;;;;;10.48;3.72;;;7.30;80.90;;;;;;5053470;28;20116;-73
2021/05/05 06:47:39;;;;;;;11.95;4.63;;;7.40;81.30;;;;;;5058557;28;20056;-70
2021/05/05 06:50:07;;;;;;;10.68;4.50;;;7.50;80.50;;;;;;5038531;28;20041;-70
2021/05/05 06:52:33;;;;;;;11.02;3.92;;;7.60;80.80;;;;;;5043795;28;20799;-74
2021/05/05 06:54:59;;;;;;;12.00;3.72;;;7.60;80.10;;;;;;5045202;28;20044;-70
2021/05/05 06:57:24;;;;;;;10.88;4.18;;;7.80;79.60;;;;;;5042240;28;20029;-74
2021/05/05 06:59:50;;;;;;;14.82;4.00;;;7.90;79.70;;;;;;5034044;28;20083;-70
2021/05/05 07:02:16;;;;;;;16.88;3.92;;;8.00;79.50;;;;;;5034498;28;20030;-71
2021/05/05 07:04:42;;;;;;;11.45;3.53;;;7.90;77.90;;;;;;5049647;28;20039;-74
2021/05/05 07:07:08;;;;;;;11.25;3.08;;;8.00;78.00;;;;;;5040530;28;20072;-71
2021/05/05 07:09:33;;;;;;;12.20;3.13;;;7.80;73.00;;;;;;5041675;28;20033;-72
2021/05/05 07:11:59;;;;;;;8.65;2.67;;;7.70;71.70;;;;;;5060735;28;20028;-71
2021/05/05 07:14:25;;;;;;;13.10;3.13;;;7.90;72.00;;;;;;5058966;28;20041;-71
2021/05/05 07:16:50;;;;;;;10.30;3.03;;;8.20;72.70;;;;;;5046047;28;20032;-72
2021/05/05 07:19:17;;;;;;;10.95;2.60;;;8.40;71.70;;;;;;5047811;28;20045;-71
2021/05/05 07:21:42;;;;;;;15.07;3.40;;;8.60;70.10;;;;;;5036432;28;20197;-70
2021/05/05 07:24:08;;;;;;;12.88;3.03;;;8.60;70.30;;;;;;5033810;28;20052;-73
2021/05/05 07:26:34;;;;;;;12.65;3.38;;;8.80;68.10;;;;;;5045938;28;21056;-74
2021/05/05 07:28:59;;;;;;;11.95;3.53;;;8.70;69.30;;;;;;5051356;28;20028;-70
2021/05/05 07:31:25;;;;;;;14.30;3.10;;;8.90;69.60;;;;;;5047455;28;20360;-72
2021/05/05 07:33:51;;;;;;;11.10;3.33;;;9.00;68.40;;;;;;5049892;28;20395;-70
2021/05/05 07:36:24;;;;;;;12.27;3.20;;;9.30;70.00;;;;;;5051908;28;20472;-71
2021/05/05 07:46:22;;;;;;;15.60;3.60;;;9.80;67.50;;;;;;5063062;28;20460;-72
2021/05/05 07:48:53;;;;;;;9.68;3.00;;;9.80;64.90;;;;;;5044428;28;20416;-70
2021/05/05 07:51:19;;;;;;;14.20;3.28;;;9.30;65.80;;;;;;5055051;28;20040;-70
2021/05/05 07:53:45;;;;;;;7.25;2.58;;;9.20;65.50;;;;;;5059943;28;20396;-68
2021/05/05 07:56:11;;;;;;;14.00;3.20;;;9.30;64.30;;;;;;5055769;28;20039;-68
2021/05/05 07:58:37;;;;;;;11.20;3.35;;;9.50;64.60;;;;;;5061137;28;20115;-69
2021/05/05 08:01:03;;;;;;;11.48;2.85;;;9.80;65.10;;;;;;5051243;28;20029;-69
2021/05/05 08:03:28;;;;;;;10.68;3.40;;;10.10;62.80;;;;;;5059011;28;20323;-70
2021/05/05 08:05:54;;;;;;;12.80;2.97;;;10.20;64.10;;;;;;5058170;28;20029;-69
2021/05/05 08:08:20;;;;;;;10.40;2.95;;;10.40;60.00;;;;;;5037532;28;20044;-72
2021/05/05 08:10:46;;;;;;;11.85;2.92;;;10.40;63.70;;;;;;5036776;28;20033;-69
2021/05/05 08:13:11;;;;;;;13.95;3.40;;;10.50;62.30;;;;;;5031970;28;20041;-69
2021/05/05 08:15:37;;;;;;;9.95;3.08;;;10.20;62.70;;;;;;5036117;28;20044;-69
2021/05/05 08:18:07;;;;;;;13.85;2.92;;;9.90;63.50;;;;;;5037337;28;20025;-69
2021/05/05 08:20:34;;;;;;;7.32;2.67;;;9.40;63.90;;;;;;5038175;28;20483;-70
2021/05/05 08:23:07;;;;;;;12.57;3.88;;;9.30;66.90;;;;;;5044743;28;20046;-69
2021/05/05 08:25:33;;;;;;;12.75;4.05;;;9.00;66.00;;;;;;5055868;28;20452;-69
2021/05/05 08:27:59;;;;;;;11.38;3.53;;;9.10;68.20;;;;;;5059766;28;20032;-72
2021/05/05 08:30:32;;;;;;;10.43;3.25;;;9.20;67.10;;;;;;5040808;28;20360;-71
2021/05/05 08:32:58;;;;;;;15.82;3.58;;;9.30;67.70;;;;;;5014659;28;20125;-68
2021/05/05 08:35:23;;;;;;;11.02;3.50;;;9.10;66.50;;;;;;5019837;28;20108;-69
2021/05/05 08:37:51;;;;;;;8.25;3.13;;;9.00;65.90;;;;;;5022560;28;20108;-72
2021/05/05 08:40:17;;;;;;;9.68;2.85;;;9.10;65.00;;;;;;5038964;28;20308;-71
2021/05/05 08:42:43;;;;;;;10.15;3.55;;;9.30;64.00;;;;;;5033819;28;20021;-68
2021/05/05 08:45:23;;;;;;;12.05;4.05;;;9.60;61.80;;;;;;5035587;28;20077;-69
2021/05/05 08:47:50;;;;;;;8.90;3.28;;;9.80;63.20;;;;;;5035807;28;20091;-70
2021/05/05 08:50:17;;;;;;;9.85;3.10;;;10.20;62.00;;;;;;5034830;28;20475;-68
2021/05/05 08:52:44;;;;;;;9.13;3.15;;;10.20;61.80;;;;;;5036442;28;20029;-71
2021/05/05 08:55:12;;;;;;;12.63;3.08;;;10.20;61.00;;;;;;5030147;28;20587;-69
2021/05/05 08:57:38;;;;;;;8.73;3.78;;;10.10;58.80;;;;;;5027960;28;20036;-69
2021/05/05 09:00:08;;;;;;;8.93;3.00;;;10.50;60.40;;;;;;5032343;28;20043;-70
2021/05/05 09:02:34;;;;;;;9.65;3.08;;;10.70;58.00;;;;;;5052378;28;20044;-71
2021/05/05 09:05:03;;;;;;;10.85;2.63;;;10.30;56.70;;;;;;5048426;28;20033;-69
2021/05/05 09:07:32;;;;;;;10.52;2.53;;;10.00;57.10;;;;;;5029629;28;20053;-68
2021/05/05 09:10:26;;;;;;;7.03;2.85;;;10.00;58.40;;;;;;5031263;28;20033;-70
2021/05/05 09:12:54;;;;;;;9.77;2.90;;;10.30;57.50;;;;;;5026823;28;20436;-71
2021/05/05 09:15:24;;;;;;;9.38;2.75;;;10.80;58.10;;;;;;5035759;28;20342;-69
2021/05/05 09:17:52;;;;;;;8.75;3.60;;;11.20;55.80;;;;;;5028351;28;20116;-69
2021/05/05 09:20:32;;;;;;;9.00;2.88;;;11.20;57.70;;;;;;5032811;28;20743;-68
2021/05/05 09:23:00;;;;;;;8.50;2.72;;;11.00;58.00;;;;;;5037489;28;20388;-69
2021/05/05 09:25:29;;;;;;;15.32;3.20;;;10.60;55.30;;;;;;5036604;28;20059;-69
2021/05/05 09:28:18;;;;;;;9.73;2.95;;;10.60;56.00;;;;;;5038548;28;20376;-70
2021/05/05 09:30:46;;;;;;;9.75;3.03;;;11.00;56.50;;;;;;5027468;28;20053;-69
2021/05/05 09:33:31;;;;;;;14.05;3.30;;;11.30;55.80;;;;;;5032234;28;20055;-69
2021/05/05 09:35:59;;;;;;;8.15;2.60;;;10.80;55.30;;;;;;5018724;28;20561;-69
2021/05/05 09:38:49;;;;;;;8.88;2.80;;;10.10;52.90;;;;;;5030559;28;20033;-72
2021/05/05 09:41:17;;;;;;;6.78;2.42;;;10.10;55.20;;;;;;5022354;28;20100;-70
2021/05/05 09:43:43;;;;;;;8.13;2.83;;;10.60;54.10;;;;;;5037664;28;20105;-71
2021/05/05 09:46:47;;;;;;;7.20;2.35;;;11.10;53.30;;;;;;5025340;28;20030;-68
2021/05/05 09:49:42;;;;;;;6.47;2.25;;;11.10;51.40;;;;;;5018947;28;20065;-70
2021/05/05 09:52:19;;;;;;;7.32;2.17;;;11.50;53.40;;;;;;5020145;28;20036;-72
2021/05/05 09:54:59;;;;;;;8.00;2.30;;;12.00;50.00;;;;;;5024048;28;20041;-73
2021/05/05 09:57:28;;;;;;;7.68;2.65;;;12.20;51.30;;;;;;5020137;28;20096;-73
2021/05/05 10:00:09;;;;;;;8.10;2.85;;;12.10;50.10;;;;;;5001442;28;20030;-75
2021/05/05 10:02:46;;;;;;;8.65;2.40;;;12.50;52.00;;;;;;5023214;28;20033;-73
2021/05/05 10:05:18;;;;;;;8.23;2.80;;;12.60;47.00;;;;;;5024325;28;20034;-70
2021/05/05 10:07:54;;;;;;;7.03;2.75;;;12.10;47.90;;;;;;5025273;28;20291;-68
2021/05/05 10:10:21;;;;;;;8.15;2.47;;;12.20;51.20;;;;;;5021340;28;20049;-70
2021/05/05 10:12:48;;;;;;;10.23;3.08;;;11.90;51.00;;;;;;5019090;28;20026;-68
2021/05/05 10:15:16;;;;;;;9.50;3.03;;;11.50;52.80;;;;;;5020649;28;20030;-69
2021/05/05 10:17:48;;;;;;;7.70;2.80;;;10.70;53.70;;;;;;5022209;28;20037;-67
2021/05/05 10:20:16;;;;;;;7.57;2.70;;;10.30;56.00;;;;;;5021531;28;20372;-68
2021/05/05 10:22:42;;;;;;;9.25;3.10;;;10.10;56.10;;;;;;5018149;28;20018;-71
2021/05/05 10:25:09;;;;;;;8.63;3.40;;;10.10;57.70;;;;;;5023478;28;20551;-68
2021/05/05 10:27:37;;;;;;;8.05;2.75;;;10.20;57.20;;;;;;5021292;28;20025;-67
2021/05/05 10:30:04;;;;;;;8.10;2.83;;;10.90;56.20;;;;;;5018451;28;20088;-68
2021/05/05 10:32:32;;;;;;;7.45;2.35;;;11.00;52.90;;;;;;5015036;28;20030;-69
2021/05/05 10:34:58;;;;;;;7.82;3.20;;;10.90;50.30;;;;;;5022729;28;20444;-68
2021/05/05 10:37:41;;;;;;;7.18;3.22;;;11.30;51.00;;;;;;5009030;28;20056;-68
2021/05/05 10:40:18;;;;;;;9.10;3.05;;;12.00;53.60;;;;;;5021291;28;20068;-68
2021/05/05 10:42:57;;;;;;;8.57;3.15;;;12.20;50.30;;;;;;5016429;28;20034;-70
2021/05/05 10:45:37;;;;;;;9.45;2.70;;;12.30;49.70;;;;;;5021717;28;20067;-67
2021/05/05 10:48:07;;;;;;;7.95;2.70;;;12.70;49.90;;;;;;5015122;28;20488;-71
2021/05/05 10:50:48;;;;;;;6.63;2.25;;;12.40;46.10;;;;;;5019794;28;20092;-70
2021/05/05 10:53:15;;;;;;;9.15;2.63;;;12.40;47.20;;;;;;5012785;28;20025;-67
2021/05/05 10:55:47;;;;;;;6.53;2.53;;;12.60;47.10;;;;;;5020230;28;20049;-68
2021/05/05 10:58:56;;;;;;;8.95;3.10;;;12.80;47.50;;;;;;5019036;28;20026;-67
2021/05/05 11:01:51;;;;;;;12.73;3.88;;;12.40;48.70;;;;;;5019230;28;20042;-68
2021/05/05 11:04:16;;;;;;;7.07;2.75;;;11.90;50.00;;;;;;5015549;28;20022;-67
2021/05/05 11:06:54;;;;;;;7.60;2.35;;;11.90;51.10;;;;;;5022225;28;20115;-69
2021/05/05 11:09:22;;;;;;;7.05;2.25;;;11.80;48.00;;;;;;5015641;28;20057;-68
2021/05/05 11:11:52;;;;;;;7.97;2.80;;;11.40;49.40;;;;;;5006737;28;20077;-69
2021/05/05 11:14:24;;;;;;;8.30;3.30;;;11.60;50.00;;;;;;4991253;28;20057;-67
2021/05/05 11:16:54;;;;;;;8.30;2.90;;;11.60;50.80;;;;;;5000480;28;20042;-70
2021/05/05 11:19:38;;;;;;;7.78;2.65;;;12.10;51.00;;;;;;4992770;28;20508;-66
2021/05/05 11:22:05;;;;;;;7.28;3.05;;;12.40;48.80;;;;;;5015600;28;20037;-71
2021/05/05 11:24:37;;;;;;;8.48;2.75;;;12.50;48.80;;;;;;5018133;28;20536;-69
2021/05/05 11:27:09;;;;;;;8.50;2.40;;;12.50;47.30;;;;;;5020672;28;20037;-69
2021/05/05 11:29:39;;;;;;;8.70;2.35;;;12.00;47.60;;;;;;5014937;28;20037;-72
2021/05/05 11:32:07;;;;;;;9.07;3.17;;;12.30;48.50;;;;;;5015025;28;20120;-70
2021/05/05 11:34:38;;;;;;;8.13;3.08;;;12.60;48.90;;;;;;5013766;28;20687;-68
2021/05/05 11:37:05;;;;;;;6.30;2.72;;;12.40;47.70;;;;;;4997579;28;20026;-67
2021/05/05 11:39:36;;;;;;;7.78;2.30;;;12.50;47.10;;;;;;5011271;28;20045;-67
2021/05/05 11:42:20;;;;;;;6.65;2.35;;;12.10;45.10;;;;;;5022067;28;20038;-69
2021/05/05 11:45:00;;;;;;;8.10;2.58;;;11.80;46.50;;;;;;5014221;28;20057;-68
2021/05/05 11:47:28;;;;;;;11.07;3.20;;;11.70;47.00;;;;;;5015682;28;20273;-70
2021/05/05 11:49:59;;;;;;;8.27;3.28;;;11.50;48.20;;;;;;5017755;28;20037;-71
2021/05/05 11:52:33;;;;;;;7.22;2.92;;;11.80;48.60;;;;;;5018335;28;20021;-69
2021/05/05 11:55:03;;;;;;;7.38;2.95;;;12.10;49.10;;;;;;5017679;28;20124;-70
2021/05/05 11:57:31;;;;;;;5.60;2.55;;;12.20;48.60;;;;;;5017087;28;20658;-69
2021/05/05 12:00:09;;;;;;;7.53;2.72;;;12.50;46.60;;;;;;5008743;28;20100;-70
2021/05/05 12:02:47;;;;;;;11.63;3.10;;;12.50;47.90;;;;;;4996366;28;20045;-69
2021/05/05 12:05:30;;;;;;;8.70;3.55;;;12.60;46.50;;;;;;5022432;28;20123;-68
2021/05/05 12:07:59;;;;;;;7.85;2.33;;;12.80;45.40;;;;;;5022347;28;20387;-69
2021/05/05 12:10:51;;;;;;;9.48;2.55;;;12.80;43.50;;;;;;5021451;28;20055;-67
2021/05/05 12:13:20;;;;;;;6.35;3.00;;;13.00;43.70;;;;;;5021350;28;20138;-68
2021/05/05 12:15:59;;;;;;;5.97;2.60;;;13.00;45.80;;;;;;5019863;28;20136;-70
2021/05/05 12:18:32;;;;;;;6.07;2.08;;;13.10;46.10;;;;;;5015012;28;20480;-71
2021/05/05 12:21:30;;;;;;;8.63;2.80;;;13.10;42.50;;;;;;5021864;28;20377;-70
2021/05/05 12:24:01;;;;;;;7.38;2.72;;;13.00;43.50;;;;;;4997445;28;20069;-68
2021/05/05 12:26:29;;;;;;;4.85;1.45;;;12.70;44.50;;;;;;5002321;28;20514;-68
2021/05/05 12:28:56;;;;;;;4.45;1.80;;;12.50;40.20;;;;;;5003084;28;20044;-69
2021/05/05 12:31:24;;;;;;;7.57;2.28;;;12.30;40.60;;;;;;5001526;28;20041;-68
2021/05/05 12:33:51;;;;;;;5.93;2.13;;;12.40;42.30;;;;;;5008737;28;20044;-69
2021/05/05 12:36:20;;;;;;;5.47;2.30;;;12.50;39.60;;;;;;5001829;28;20337;-69
2021/05/05 12:38:48;;;;;;;6.28;2.22;;;12.30;41.40;;;;;;5020956;28;20617;-69
2021/05/05 12:41:24;;;;;;;8.05;2.42;;;12.60;42.00;;;;;;5001342;28;20481;-68
2021/05/05 12:43:54;;;;;;;6.53;2.72;;;12.60;42.80;;;;;;5011461;28;20042;-69
2021/05/05 12:46:34;;;;;;;6.32;2.35;;;12.90;42.90;;;;;;5007467;28;20050;-70
2021/05/05 12:49:02;;;;;;;4.38;2.15;;;12.60;42.60;;;;;;5010827;28;20095;-68
2021/05/05 12:51:37;;;;;;;5.60;2.15;;;12.40;44.10;;;;;;4996507;28;20370;-69
2021/05/05 12:54:03;;;;;;;;;;;12.80;41.70;;;;;;5010445;28;20034;-68
2021/05/05 12:57:01;;;;;;;6.75;2.70;;;13.10;42.40;;;;;;5016955;28;20206;-69
2021/05/05 12:59:34;;;;;;;10.30;2.50;;;13.40;42.20;;;;;;4993929;28;20042;-72
2021/05/05 13:02:10;;;;;;;7.82;3.00;;;13.10;41.10;;;;;;4995643;28;20521;-71